Time;durP1;ratioP1;P1;durP2;ratioP2;P2;SDS_P1;SDS_P2;PMS_P1;PMS_P2;Temp;Humidity;BMP_temperature;BMP_pressure;BME280_temperature;BME280_humidity;BME280_pressure;Samples;Min_cycle;Max_cycle;Signal;HPM_P1;HPM_P2
2022/12/23 00:00:53;;;;;;;56.63;25.75;;;;;;;;;;5058292;28;20048;-93
2022/12/23 00:03:19;;;;;;;57.90;26.40;;;;;;;;;;5058133;28;20048;-92
2022/12/23 00:05:45;;;;;;;54.35;24.95;;;;;;;;;;5074726;28;20055;-93
2022/12/23 00:08:11;;;;;;;59.08;26.42;;;;;;;;;;5058191;28;20048;-91
2022/12/23 00:10:40;;;;;;;56.28;25.25;;;;;;;;;;5057895;28;20048;-94
2022/12/23 00:16:00;;;;;;;52.80;24.02;;;;;;;;;;5074474;28;20051;-92
2022/12/23 00:18:26;;;;;;;62.33;26.65;;;;;;;;;;5057780;28;20337;-92
2022/12/23 00:20:57;;;;;;;54.42;25.00;;;;;;;;;;5057605;28;20056;-90
2022/12/23 00:23:23;;;;;;;60.90;27.23;;;;;;;;;;5058184;28;20056;-95
2022/12/23 00:25:49;;;;;;;59.42;27.63;;;;;;;;;;5058055;28;20040;-96
2022/12/23 00:28:17;;;;;;;64.47;27.48;;;;;;;;;;5041683;28;20171;-95
2022/12/23 00:30:45;;;;;;;66.30;28.63;;;;;;;;;;5057681;28;20048;-94
2022/12/23 00:33:11;;;;;;;57.58;28.23;;;;;;;;;;5041753;28;20048;-95
2022/12/23 00:35:37;;;;;;;62.15;28.10;;;;;;;;;;5041231;28;20067;-92
2022/12/23 00:38:03;;;;;;;65.50;30.10;;;;;;;;;;5041641;28;20519;-94
2022/12/23 00:43:14;;;;;;;55.85;28.13;;;;;;;;;;5074679;28;20485;-96
2022/12/23 00:45:40;;;;;;;74.20;30.70;;;;;;;;;;5041965;28;20569;-92
2022/12/23 00:51:07;;;;;;;55.83;25.52;;;;;;;;;;5074886;28;20392;-94
2022/12/23 00:53:33;;;;;;;55.22;27.80;;;;;;;;;;5057617;28;20087;-95
2022/12/23 00:55:59;;;;;;;63.33;27.48;;;;;;;;;;5057732;28;20051;-93
2022/12/23 00:58:25;;;;;;;63.47;27.33;;;;;;;;;;5041121;28;20048;-94
2022/12/23 01:06:21;;;;;;;70.38;28.15;;;;;;;;;;5063573;28;20059;-93
2022/12/23 01:08:47;;;;;;;67.82;27.58;;;;;;;;;;5061788;28;20048;-92
2022/12/23 01:11:13;;;;;;;65.40;28.08;;;;;;;;;;5063830;28;20535;-93
2022/12/23 01:13:39;;;;;;;71.10;29.75;;;;;;;;;;5046602;28;20083;-95
2022/12/23 01:16:07;;;;;;;74.53;28.27;;;;;;;;;;5079344;28;20055;-95
2022/12/23 01:18:34;;;;;;;68.68;28.42;;;;;;;;;;5062528;28;20063;-96
2022/12/23 01:21:04;;;;;;;65.10;28.67;;;;;;;;;;5046433;28;20063;-95
2022/12/23 01:23:30;;;;;;;67.35;30.27;;;;;;;;;;5061980;28;20094;-95
2022/12/23 01:26:01;;;;;;;72.82;30.13;;;;;;;;;;5063121;28;20048;-96
2022/12/23 01:28:28;;;;;;;65.90;28.88;;;;;;;;;;5062008;28;20050;-92
2022/12/23 01:30:54;;;;;;;61.53;28.40;;;;;;;;;;5078108;28;20054;-96
2022/12/23 01:33:21;;;;;;;59.33;28.77;;;;;;;;;;5062263;28;20048;-96
2022/12/23 01:35:47;;;;;;;77.43;31.92;;;;;;;;;;5062688;28;20488;-94
2022/12/23 01:38:14;;;;;;;65.15;27.42;;;;;;;;;;5062991;28;20051;-95
2022/12/23 01:40:41;;;;;;;66.38;27.25;;;;;;;;;;5065825;28;20040;-96
2022/12/23 01:43:11;;;;;;;75.63;31.23;;;;;;;;;;5084740;28;20044;-94
2022/12/23 01:45:37;;;;;;;74.53;30.30;;;;;;;;;;5064490;28;20048;-96
2022/12/23 01:48:08;;;;;;;74.90;29.42;;;;;;;;;;5097602;28;20052;-94
2022/12/23 01:50:55;;;;;;;59.80;26.60;;;;;;;;;;5062875;28;20059;-93
2022/12/23 01:53:26;;;;;;;77.30;30.10;;;;;;;;;;5062514;28;20048;-96
2022/12/23 01:55:55;;;;;;;65.40;27.85;;;;;;;;;;5065358;28;20492;-95
2022/12/23 01:58:30;;;;;;;72.60;29.20;;;;;;;;;;5066729;28;20059;-95
2022/12/23 02:03:42;;;;;;;63.72;29.40;;;;;;;;;;5065106;28;20047;-96
2022/12/23 02:11:46;;;;;;;62.97;28.52;;;;;;;;;;5077780;28;20051;-94
2022/12/23 02:17:35;;;;;;;72.00;28.80;;;;;;;;;;5076266;28;20082;-92
2022/12/23 02:20:01;;;;;;;79.72;30.05;;;;;;;;;;5071886;28;20063;-93
2022/12/23 02:22:45;;;;;;;71.38;28.67;;;;;;;;;;5059920;28;20040;-92
2022/12/23 02:25:20;;;;;;;77.50;29.70;;;;;;;;;;5059984;28;20056;-92
2022/12/23 02:27:53;;;;;;;75.05;29.45;;;;;;;;;;5059588;28;20044;-92
2022/12/23 02:30:48;;;;;;;84.53;31.52;;;;;;;;;;5059181;28;20095;-93
2022/12/23 02:33:14;;;;;;;81.88;30.50;;;;;;;;;;5038972;28;20055;-92
2022/12/23 02:35:46;;;;;;;78.82;30.98;;;;;;;;;;5058893;28;20048;-92
2022/12/23 02:38:15;;;;;;;83.15;33.13;;;;;;;;;;5058360;28;20052;-93
2022/12/23 02:40:47;;;;;;;67.78;30.20;;;;;;;;;;5058469;28;20089;-92
2022/12/23 02:43:32;;;;;;;81.28;32.00;;;;;;;;;;5058662;28;20051;-92
2022/12/23 02:46:02;;;;;;;87.65;32.20;;;;;;;;;;5057962;28;20040;-92
2022/12/23 02:48:39;;;;;;;78.13;31.13;;;;;;;;;;5058094;28;20056;-92
2022/12/23 02:51:07;;;;;;;70.72;30.75;;;;;;;;;;5058271;28;20087;-92
2022/12/23 02:53:45;;;;;;;101.60;35.53;;;;;;;;;;5058085;28;20523;-92
2022/12/23 02:56:12;;;;;;;100.95;36.00;;;;;;;;;;5058433;28;20051;-91
2022/12/23 02:58:42;;;;;;;85.45;32.03;;;;;;;;;;5058230;28;20058;-92
2022/12/23 03:01:10;;;;;;;74.40;32.83;;;;;;;;;;5057955;28;20078;-91
2022/12/23 03:03:36;;;;;;;89.63;32.28;;;;;;;;;;5058160;28;20044;-92
2022/12/23 03:06:07;;;;;;;82.45;31.88;;;;;;;;;;5058345;28;20056;-92
2022/12/23 03:08:39;;;;;;;83.93;32.08;;;;;;;;;;5058222;28;20040;-92
2022/12/23 03:11:10;;;;;;;79.90;31.23;;;;;;;;;;5074464;28;20055;-92
2022/12/23 03:13:42;;;;;;;74.20;31.75;;;;;;;;;;5058053;28;20055;-91
2022/12/23 03:16:11;;;;;;;71.43;29.67;;;;;;;;;;5058256;28;20052;-92
2022/12/23 03:18:45;;;;;;;71.40;29.77;;;;;;;;;;5060246;28;20484;-92
2022/12/23 03:21:11;;;;;;;76.95;28.92;;;;;;;;;;5058737;28;20459;-93
2022/12/23 03:23:45;;;;;;;76.00;28.48;;;;;;;;;;5058332;28;20526;-92
2022/12/23 03:26:11;;;;;;;80.22;28.33;;;;;;;;;;5058118;28;20078;-92
2022/12/23 03:28:43;;;;;;;68.30;27.58;;;;;;;;;;5057821;28;20052;-95
2022/12/23 03:31:11;;;;;;;57.08;25.05;;;;;;;;;;5058231;28;20085;-94
2022/12/23 03:33:39;;;;;;;60.28;26.33;;;;;;;;;;5058666;28;20086;-96
2022/12/23 03:36:25;;;;;;;65.18;26.63;;;7.10;99.90;;;;;;5017675;28;1175621;-96
2022/12/23 03:38:53;;;;;;;82.03;28.88;;;;;;;;;;5059658;28;20492;-95
2022/12/23 03:41:23;;;;;;;61.53;26.48;;;;;;;;;;5061051;28;20052;-95
2022/12/23 03:43:51;;;;;;;58.20;26.77;;;;;;;;;;5078417;28;20093;-96
2022/12/23 03:46:20;;;;;;;70.97;26.73;;;;;;;;;;5081538;28;20055;-95
2022/12/23 03:49:10;;;;;;;60.38;27.58;;;;;;;;;;5059808;28;20136;-96
2022/12/23 03:51:39;;;;;;;75.75;28.42;;;;;;;;;;5046100;28;20063;-95
2022/12/23 03:54:09;;;;;;;68.53;27.27;;;;;;;;;;5058698;28;20059;-95
2022/12/23 03:56:37;;;;;;;69.88;27.38;;;;;;;;;;5058869;28;20054;-94
2022/12/23 03:59:20;;;;;;;88.60;30.77;;;;;;;;;;5058840;28;20052;-94
2022/12/23 04:01:53;;;;;;;72.88;27.70;;;;;;;;;;5058618;28;20060;-94
2022/12/23 04:04:28;;;;;;;113.07;32.92;;;;;;;;;;5075018;28;20052;-93
2022/12/23 04:06:57;;;;;;;67.75;27.50;;;;;;;;;;5058162;28;20135;-95
2022/12/23 04:09:24;;;;;;;87.20;31.25;;;;;;;;;;5058322;28;20056;-95
2022/12/23 04:11:51;;;;;;;71.07;27.45;;;;;;;;;;5058342;28;20048;-93
2022/12/23 04:14:18;;;;;;;70.70;26.90;;;;;;;;;;5043848;28;20075;-94
2022/12/23 04:16:45;;;;;;;67.18;28.08;;;;;;;;;;5058547;28;20048;-94
2022/12/23 04:19:11;;;;;;;64.93;25.75;;;;;;;;;;5058597;28;20087;-93
2022/12/23 04:21:37;;;;;;;66.38;26.80;;;;;;;;;;5042177;28;20051;-95
2022/12/23 04:24:03;;;;;;;77.95;27.45;;;;;;;;;;5041326;28;20181;-94
2022/12/23 04:26:29;;;;;;;83.70;29.98;;;;;;;;;;5041245;28;20199;-92
2022/12/23 04:28:55;;;;;;;59.03;25.98;;;;;;;;;;5057948;28;20514;-92
2022/12/23 04:31:21;;;;;;;79.40;28.70;;;;;;;;;;5057692;28;20393;-94
2022/12/23 04:33:47;;;;;;;56.05;25.55;;;;;;;;;;5058072;28;20492;-93
2022/12/23 04:36:13;;;;;;;73.68;26.05;;;;;;;;;;5042467;28;20105;-93
2022/12/23 04:38:39;;;;;;;81.93;28.35;;;;;;;;;;5061898;28;20099;-92
2022/12/23 04:41:06;;;;;;;61.08;26.25;;;;;;;;;;5045464;28;20052;-95
2022/12/23 04:43:32;;;;;;;71.88;27.00;;;;;;;;;;5061632;28;20047;-94
2022/12/23 04:45:58;;;;;;;64.70;26.88;;;;;;;;;;5045026;28;20062;-94
2022/12/23 04:48:24;;;;;;;66.30;26.25;;;;;;;;;;5045141;28;20040;-93
2022/12/23 04:50:50;;;;;;;65.70;25.52;;;;;;;;;;5045157;28;20478;-95
2022/12/23 04:53:16;;;;;;;57.08;24.25;;;;;;;;;;5061752;28;20638;-93
2022/12/23 04:55:42;;;;;;;60.17;23.35;;;;;;;;;;5061850;28;20044;-94
2022/12/23 04:58:08;;;;;;;62.47;24.13;;;;;;;;;;5063365;28;20058;-96
2022/12/23 05:00:34;;;;;;;63.25;24.27;;;;;;;;;;5057534;28;20074;-95
2022/12/23 05:03:01;;;;;;;59.60;23.60;;;;;;;;;;5074218;28;20043;-94
2022/12/23 05:05:27;;;;;;;49.13;22.75;;;;;;;;;;5049036;28;20536;-96
2022/12/23 05:08:01;;;;;;;55.72;23.33;;;;;;;;;;5068682;28;20052;-95
2022/12/23 05:10:27;;;;;;;53.90;21.58;;;;;;;;;;5068048;28;20048;-96
2022/12/23 05:12:53;;;;;;;56.85;23.83;;;;;;;;;;5045018;28;20052;-93
2022/12/23 05:15:19;;;;;;;48.28;21.67;;;;;;;;;;5061380;28;20058;-95
2022/12/23 05:17:45;;;;;;;54.72;22.85;;;;;;;;;;5044986;28;20052;-94
2022/12/23 05:20:11;;;;;;;56.63;22.98;;;;;;;;;;5044916;28;20177;-94
2022/12/23 05:22:38;;;;;;;48.00;21.70;;;;;;;;;;5061147;28;20060;-94
2022/12/23 05:25:04;;;;;;;60.75;24.05;;;;;;;;;;5045013;28;20044;-94
2022/12/23 05:27:30;;;;;;;44.92;21.45;;;;;;;;;;5061346;28;20404;-95
2022/12/23 05:29:56;;;;;;;50.30;23.45;;;;;;;;;;5044690;28;20503;-92
2022/12/23 05:32:22;;;;;;;48.90;19.48;;;;;;;;;;5060872;28;20048;-92
2022/12/23 05:34:48;;;;;;;56.08;20.50;;;;;;;;;;5044247;28;20077;-92
2022/12/23 05:37:14;;;;;;;51.60;22.05;;;;;;;;;;5043949;28;20094;-92
2022/12/23 05:39:40;;;;;;;57.83;22.98;;;;;;;;;;5044917;28;20055;-94
2022/12/23 05:42:06;;;;;;;48.88;19.92;;;;;;;;;;5061066;28;20051;-92
2022/12/23 05:44:32;;;;;;;65.80;23.15;;;;;;;;;;5060925;28;20051;-92
2022/12/23 05:46:58;;;;;;;51.60;20.45;;;;;;;;;;5043907;28;20048;-92
2022/12/23 05:49:25;;;;;;;55.92;21.05;;;;;;;;;;5042659;28;20058;-92
2022/12/23 05:51:51;;;;;;;64.07;22.25;;;;;;;;;;5060169;28;20048;-92
2022/12/23 05:54:17;;;;;;;61.88;21.63;;;;;;;;;;5059950;28;20131;-92
2022/12/23 05:56:43;;;;;;;56.60;23.05;;;;;;;;;;5043563;28;20067;-92
2022/12/23 05:59:09;;;;;;;58.10;23.83;;;;;;;;;;5043656;28;20052;-91
2022/12/23 06:01:36;;;;;;;66.97;24.85;;;;;;;;;;5044154;28;20454;-92
2022/12/23 06:04:02;;;;;;;58.78;22.02;;;;;;;;;;5060161;28;20044;-92
2022/12/23 06:06:28;;;;;;;63.28;23.42;;;;;;;;;;5060248;28;20055;-94
2022/12/23 06:08:54;;;;;;;68.00;25.08;;;;;;;;;;5076557;28;20440;-91
2022/12/23 06:11:20;;;;;;;73.50;24.15;;;;;;;;;;5043596;28;20048;-92
2022/12/23 06:13:46;;;;;;;66.03;24.85;;;;;;;;;;5076774;28;20052;-92
2022/12/23 06:16:12;;;;;;;71.40;23.83;;;;;;;;;;5059790;28;20096;-92
2022/12/23 06:18:38;;;;;;;62.67;22.92;;;;;;;;;;5043837;28;20079;-92
2022/12/23 06:21:04;;;;;;;106.18;28.20;;;;;;;;;;5059840;28;20090;-92
2022/12/23 06:23:33;;;;;;;178.18;34.05;;;;;;;;;;5061163;28;20499;-92
2022/12/23 06:26:00;;;;;;;154.38;28.23;;;;;;;;;;5065565;28;20048;-93
2022/12/23 06:28:28;;;;;;;337.77;43.50;;;;;;;;;;5064871;28;20081;-92
2022/12/23 06:30:54;;;;;;;359.17;43.30;;;;;;;;;;5080852;28;20056;-91
2022/12/23 06:33:21;;;;;;;319.88;42.35;;;;;;;;;;5064462;28;20044;-93
2022/12/23 06:35:47;;;;;;;354.90;45.58;;;;;;;;;;5064709;28;20048;-91
2022/12/23 06:38:13;;;;;;;328.05;41.83;;;;;;;;;;5063543;28;20048;-93
2022/12/23 06:40:39;;;;;;;423.00;52.00;;;;;;;;;;5048657;28;20048;-94
2022/12/23 06:43:06;;;;;;;134.05;26.85;;;;;;;;;;5047334;28;20052;-94
2022/12/23 06:45:32;;;;;;;405.27;41.80;;;;;;;;;;5063529;28;20047;-94
2022/12/23 06:47:58;;;;;;;320.27;39.10;;;;;;;;;;5064283;28;20059;-94
2022/12/23 06:50:24;;;;;;;200.48;31.65;;;;;;;;;;5047314;28;20500;-92
2022/12/23 06:52:50;;;;;;;238.15;33.95;;;;;;;;;;5063896;28;20131;-93
2022/12/23 06:55:16;;;;;;;267.83;37.75;;;;;;;;;;5065465;28;20135;-95
2022/12/23 06:57:42;;;;;;;244.70;37.35;;;;;;;;;;5067630;28;20113;-92
2022/12/23 07:00:09;;;;;;;293.85;35.65;;;;;;;;;;5067187;28;20048;-93
2022/12/23 07:02:35;;;;;;;167.80;31.52;;;;;;;;;;5084367;28;20051;-94
2022/12/23 07:05:01;;;;;;;103.70;26.42;;;;;;;;;;5085008;28;20138;-92
2022/12/23 07:07:27;;;;;;;137.73;29.48;;;;;;;;;;5067167;28;20496;-93
2022/12/23 07:09:53;;;;;;;79.63;25.10;;;;;;;;;;5082024;28;20054;-94
2022/12/23 07:12:20;;;;;;;113.38;29.65;;;;;;;;;;5047865;28;20070;-90
2022/12/23 07:14:46;;;;;;;76.47;24.13;;;;;;;;;;5063740;28;20253;-93
2022/12/23 07:17:12;;;;;;;53.60;21.55;;;;;;;;;;5062802;28;20124;-94
2022/12/23 07:19:40;;;;;;;71.82;22.80;;;;;;;;;;5046557;28;20044;-92
2022/12/23 07:22:11;;;;;;;57.25;20.77;;;;;;;;;;5062217;28;20102;-92
2022/12/23 07:24:37;;;;;;;65.85;22.85;;;;;;;;;;5043686;28;20048;-93
2022/12/23 07:27:04;;;;;;;45.13;19.25;;;;;;;;;;5043121;28;20059;-93
2022/12/23 07:29:30;;;;;;;49.70;19.60;;;;;;;;;;5060496;28;20048;-94
2022/12/23 07:31:56;;;;;;;51.17;19.05;;;;;;;;;;5059921;28;20081;-92
2022/12/23 07:34:22;;;;;;;39.47;17.30;;;;;;;;;;5094690;28;20131;-93
2022/12/23 07:36:49;;;;;;;42.33;17.58;;;;;;;;;;5075794;28;20048;-93
2022/12/23 07:39:15;;;;;;;49.10;17.75;;;;;;;;;;5076425;28;20126;-91
2022/12/23 07:41:41;;;;;;;43.53;17.60;;;;;;;;;;5059186;28;20048;-92
2022/12/23 07:44:07;;;;;;;43.13;17.30;;;;;;;;;;5042445;28;20044;-95
2022/12/23 07:46:33;;;;;;;36.40;15.82;;;;;;;;;;5042678;28;20051;-94
2022/12/23 07:48:59;;;;;;;41.58;16.98;;;;;;;;;;5059799;28;20047;-92
2022/12/23 07:51:25;;;;;;;37.35;15.88;;;;;;;;;;5061901;28;20080;-93
2022/12/23 07:53:52;;;;;;;43.05;17.35;;;;;;;;;;5061027;28;20048;-95
2022/12/23 07:56:18;;;;;;;44.40;18.42;;;;;;;;;;5042216;28;20051;-92
2022/12/23 07:58:48;;;;;;;42.47;17.40;;;;;;;;;;5086264;28;20048;-92
2022/12/23 08:01:14;;;;;;;40.97;16.92;;;;;;;;;;5077357;28;20058;-91
2022/12/23 08:03:40;;;;;;;45.00;16.23;;;;;;;;;;5061879;28;20052;-93
2022/12/23 08:06:08;;;;;;;43.35;16.50;;;;;;;;;;5095746;28;20511;-93
2022/12/23 08:08:35;;;;;;;39.85;15.73;;;;;;;;;;5095440;28;20520;-92
2022/12/23 08:11:05;;;;;;;36.17;15.85;;;;;;;;;;5095246;28;20048;-91
2022/12/23 08:13:32;;;;;;;44.78;16.67;;;;;;;;;;5099223;28;20399;-92
2022/12/23 08:15:59;;;;;;;37.90;16.42;;;;;;;;;;5099051;28;20486;-91
2022/12/23 08:18:26;;;;;;;41.42;16.63;;;;;;;;;;5098674;28;20051;-92
2022/12/23 08:20:56;;;;;;;38.33;15.40;;;;;;;;;;5099205;28;20578;-93
2022/12/23 08:23:23;;;;;;;39.17;16.05;;;;;;;;;;5099385;28;20050;-93
2022/12/23 08:25:49;;;;;;;32.47;14.18;;;;;;;;;;5099197;28;20052;-93
2022/12/23 08:28:15;;;;;;;34.80;14.93;;;;;;;;;;5099181;28;20075;-91
2022/12/23 08:30:41;;;;;;;36.05;15.23;;;;;;;;;;5081947;28;20134;-92
2022/12/23 08:33:07;;;;;;;38.55;14.82;;;;;;;;;;5099875;28;20138;-90
2022/12/23 08:35:33;;;;;;;36.92;14.77;;;;;;;;;;5065626;28;20060;-92
2022/12/23 08:37:59;;;;;;;30.23;13.55;;;;;;;;;;5099108;28;20064;-94
2022/12/23 08:40:25;;;;;;;31.48;13.95;;;;;;;;;;5074131;28;20047;-94
2022/12/23 08:42:51;;;;;;;34.83;13.77;;;;;;;;;;5101082;28;20067;-93
2022/12/23 08:45:17;;;;;;;33.60;14.65;;;;;;;;;;5098690;28;20039;-94
2022/12/23 08:47:43;;;;;;;38.25;13.68;;;;;;;;;;5100831;28;20069;-95
2022/12/23 08:50:10;;;;;;;37.63;14.15;;;;;;;;;;5100027;28;20079;-91
2022/12/23 08:52:37;;;;;;;28.30;13.80;;;;;;;;;;5081793;28;20136;-91
2022/12/23 08:55:03;;;;;;;33.25;13.48;;;;;;;;;;5065609;28;20050;-94
2022/12/23 08:57:29;;;;;;;33.28;13.18;;;;;;;;;;5098927;28;20122;-94
2022/12/23 08:59:57;;;;;;;28.52;12.10;;;;;;;;;;5065432;28;20055;-93
2022/12/23 09:02:23;;;;;;;31.52;12.60;;;;;;;;;;5065377;28;20048;-93
2022/12/23 09:04:49;;;;;;;21.98;11.13;;;;;;;;;;5098861;28;20094;-93
2022/12/23 09:07:16;;;;;;;21.23;9.95;;;;;;;;;;5082221;28;20047;-90
2022/12/23 09:09:42;;;;;;;20.80;10.38;;;;;;;;;;5066776;28;20139;-90
2022/12/23 09:12:08;;;;;;;26.17;11.02;;;;;;;;;;5065067;28;20056;-94
2022/12/23 09:14:34;;;;;;;20.58;10.73;;;;;;;;;;5098735;28;20449;-92
2022/12/23 09:17:00;;;;;;;19.50;8.75;;;;;;;;;;5100840;28;20054;-91
2022/12/23 09:19:26;;;;;;;18.35;9.93;;;;;;;;;;5098323;28;20067;-92
2022/12/23 09:21:52;;;;;;;22.98;9.93;;;;;;;;;;5081076;28;20142;-91
2022/12/23 09:24:18;;;;;;;20.17;8.10;;;;;;;;;;5081165;28;20047;-91
2022/12/23 09:26:45;;;;;;;16.63;8.30;;;;;;;;;;5081685;28;20092;-90
2022/12/23 09:29:11;;;;;;;17.33;8.40;;;;;;;;;;5081884;28;20500;-91
2022/12/23 09:31:37;;;;;;;13.93;8.07;;;;;;;;;;5064691;28;20051;-91
2022/12/23 09:34:03;;;;;;;18.17;8.45;;;;;;;;;;5081965;28;20055;-91
2022/12/23 09:36:35;;;;;;;15.90;7.93;;;;;;;;;;5065397;28;20438;-91
2022/12/23 09:39:10;;;;;;;18.50;8.40;;;;;;;;;;5081832;28;20040;-92
2022/12/23 09:42:02;;;;;;;24.55;9.60;;;;;;;;;;5056365;22;20079;-91
2022/12/23 09:44:31;;;;;;;18.48;9.93;;;;;;;;;;5038253;28;20588;-91
2022/12/23 09:47:05;;;;;;;23.58;8.75;;;;;;;;;;5037802;28;20048;-91
2022/12/23 09:49:45;;;;;;;18.63;9.20;;;;;;;;;;5038075;28;20421;-91
2022/12/23 09:52:22;;;;;;;20.00;10.05;;;;;;;;;;5037478;28;20132;-92
2022/12/23 09:55:01;;;;;;;19.90;9.88;;;;;;;;;;5054546;28;20057;-91
2022/12/23 09:57:34;;;;;;;20.05;10.85;;;;;;;;;;5038754;28;20081;-91
2022/12/23 10:00:22;;;;;;;28.63;10.77;;;;;;;;;;5029091;28;20335;-90
2022/12/23 10:03:04;;;;;;;27.08;11.30;;;;;;;;;;5042566;28;20476;-92
2022/12/23 10:05:46;;;;;;;25.58;11.63;;;;;;;;;;5041935;28;20102;-92
2022/12/23 10:08:18;;;;;;;24.20;11.23;;;;;;;;;;5041574;28;20049;-92
2022/12/23 10:10:52;;;;;;;27.77;11.38;;;;;;;;;;5041130;28;20048;-93
2022/12/23 10:13:39;;;;;;;24.48;11.05;;;;;;;;;;5041488;28;20111;-92
2022/12/23 10:16:12;;;;;;;36.22;15.40;;;;;;;;;;5040960;28;20048;-90
2022/12/23 10:18:51;;;;;;;45.40;18.60;;;;;;;;;;5043881;28;20076;-91
2022/12/23 10:21:25;;;;;;;50.88;21.92;;;;;;;;;;5036913;28;20083;-91
2022/12/23 10:23:53;;;;;;;44.70;20.42;;;;;;;;;;5037133;28;20045;-92
2022/12/23 10:26:22;;;;;;;49.60;21.15;;;;;;;;;;5036842;28;20045;-92
2022/12/23 10:28:50;;;;;;;50.90;22.15;;;;;;;;;;5036479;28;20055;-91
2022/12/23 10:31:19;;;;;;;48.90;22.27;;;;;;;;;;5003581;28;20048;-90
2022/12/23 10:34:15;;;;;;;51.33;23.65;;;;;;;;;;5035315;28;20084;-91
2022/12/23 10:36:41;;;;;;;54.85;23.48;;;;;;;;;;5004075;28;20141;-92
2022/12/23 10:39:29;;;;;;;44.47;20.10;;;7.10;99.90;;;;;;5037672;28;20048;-92
2022/12/23 10:41:58;;;;;;;43.80;17.10;;;;;;;;;;5035940;28;20126;-92
2022/12/23 10:44:39;;;;;;;39.65;18.27;;;;;;;;;;5036946;28;20466;-92
2022/12/23 10:47:23;;;;;;;43.35;19.00;;;;;;;;;;5037324;28;20088;-95
2022/12/23 10:50:01;;;;;;;44.50;16.83;;;;;;;;;;5036616;28;20501;-92
2022/12/23 10:52:29;;;;;;;43.58;18.65;;;;;;;;;;5036492;28;20103;-92
2022/12/23 10:54:55;;;;;;;44.58;16.45;;;;;;;;;;5036941;28;20410;-92
2022/12/23 10:57:23;;;;;;;46.95;18.17;;;;;;;;;;5036671;28;20048;-91
2022/12/23 10:59:49;;;;;;;43.60;17.52;;;;;;;;;;5037130;28;20052;-92
2022/12/23 11:02:27;;;;;;;44.50;18.50;;;;;;;;;;5036590;28;20564;-92
2022/12/23 11:04:53;;;;;;;53.25;19.48;;;;;;;;;;5036191;28;20054;-91
2022/12/23 11:07:25;;;;;;;38.97;16.95;;;;;;;;;;5036652;28;20367;-91
2022/12/23 11:09:53;;;;;;;44.10;18.08;;;;;;;;;;5037324;28;20052;-91
2022/12/23 11:12:25;;;;;;;45.97;18.63;;;;;;;;;;5036776;28;20052;-94
2022/12/23 11:14:53;;;;;;;50.42;17.17;;;;;;;;;;5037912;28;20136;-95
2022/12/23 11:17:24;;;;;;;45.85;17.65;;;;;;;;;;5036905;28;20056;-95
2022/12/23 11:20:07;;;;;;;46.58;18.27;;;;;;;;;;5036994;28;20057;-94
2022/12/23 11:22:34;;;;;;;46.38;16.92;;;;;;;;;;5036439;28;20057;-94
2022/12/23 11:25:37;;;;;;;31.60;14.90;;;;;;;;;;5036535;28;20402;-93
2022/12/23 11:28:09;;;;;;;32.03;15.57;;;;;;;;;;5036309;28;20053;-93
2022/12/23 11:30:59;;;;;;;34.08;15.85;;;;;;;;;;5036796;28;20452;-93
2022/12/23 11:33:46;;;;;;;36.38;16.08;;;;;;;;;;5020499;28;20437;-92
2022/12/23 11:36:22;;;;;;;;;;;;;;;;;;;;;
2022/12/23 11:39:14;;;;;;;30.63;14.40;;;;;;;;;;5036491;28;20091;-92
2022/12/23 11:41:49;;;;;;;28.52;14.40;;;;;;;;;;5037515;28;20059;-91
2022/12/23 11:44:21;;;;;;;30.13;12.90;;;;;;;;;;5038691;28;20048;-91
2022/12/23 11:46:48;;;;;;;26.25;13.77;;;;;;;;;;5037757;28;20087;-94
2022/12/23 11:49:14;;;;;;;31.00;14.88;;;;;;;;;;5037268;28;20041;-91
2022/12/23 11:51:40;;;;;;;32.42;14.48;;;;;;;;;;5036741;28;20057;-92
2022/12/23 11:54:14;;;;;;;27.70;13.55;;;;;;;;;;5037640;28;20041;-92
2022/12/23 11:56:43;;;;;;;32.08;14.48;;;;;;;;;;5037449;28;20136;-91
2022/12/23 11:59:20;;;;;;;36.72;18.88;;;;;;;;;;5037219;28;20045;-91
2022/12/23 12:01:49;;;;;;;26.60;14.32;;;;;;;;;;5037420;28;20135;-91
2022/12/23 12:04:20;;;;;;;27.48;11.90;;;;;;;;;;5037792;28;20045;-93
2022/12/23 12:06:47;;;;;;;25.80;13.02;;;;;;;;;;5037433;28;20095;-92
2022/12/23 12:09:13;;;;;;;25.60;11.65;;;;;;;;;;5037457;28;20052;-93
2022/12/23 12:11:44;;;;;;;31.65;12.93;;;;;;;;;;5037266;28;20057;-92
2022/12/23 12:14:18;;;;;;;26.13;12.13;;;;;;;;;;5037135;28;20088;-92
2022/12/23 12:16:50;;;;;;;25.05;12.68;;;;;;;;;;5037566;28;20128;-92
2022/12/23 12:19:21;;;;;;;22.95;12.23;;;;;;;;;;5038401;28;20053;-94
2022/12/23 12:21:49;;;;;;;25.73;12.48;;;;;;;;;;5038078;28;20064;-92
2022/12/23 12:24:16;;;;;;;29.00;12.57;;;;;;;;;;5037523;28;20053;-90
2022/12/23 12:26:44;;;;;;;25.25;12.43;;;;;;;;;;5037865;28;20051;-93
2022/12/23 12:29:24;;;;;;;29.95;13.48;;;;;;;;;;5037354;28;20048;-94
2022/12/23 12:31:54;;;;;;;25.90;12.50;;;;;;;;;;5038425;28;20099;-93
2022/12/23 12:34:39;;;;;;;33.58;15.02;;;;;;;;;;5037617;28;20044;-95
2022/12/23 12:37:38;;;;;;;29.38;12.52;;;;;;;;;;5037798;28;20044;-91
2022/12/23 12:40:14;;;;;;;27.45;13.60;;;;;;;;;;4989341;28;20052;-89
2022/12/23 12:42:41;;;;;;;28.92;13.98;;;;;;;;;;5036921;28;20464;-93
2022/12/23 12:45:14;;;;;;;28.63;13.25;;;;;;;;;;5035436;28;20490;-92
2022/12/23 12:47:59;;;;;;;35.65;15.90;;;;;;;;;;5044914;28;20045;-96
2022/12/23 12:50:38;;;;;;;27.15;12.65;;;;;;;;;;5036396;28;20057;-94
2022/12/23 12:53:12;;;;;;;30.83;12.30;;;;;;;;;;5036421;28;20128;-91
2022/12/23 12:55:41;;;;;;;28.92;13.18;;;;;;;;;;5034828;28;20049;-93
2022/12/23 12:58:31;;;;;;;27.63;12.30;;;;;;;;;;5042261;28;20075;-90
2022/12/23 13:01:36;;;;;;;33.05;14.25;;;7.30;99.90;;;;;;5062403;28;20049;-95
2022/12/23 13:04:17;;;;;;;34.15;16.23;;;;;;;;;;5044271;28;20128;-94
2022/12/23 13:06:50;;;;;;;31.02;15.15;;;;;;;;;;5040552;28;20521;-93
2022/12/23 13:09:18;;;;;;;33.58;15.38;;;;;;;;;;5038752;28;20576;-92
2022/12/23 13:12:18;;;;;;;28.30;14.25;;;7.40;99.90;;;;;;5038181;28;20052;-93
2022/12/23 13:15:02;;;;;;;29.13;13.63;;;;;;;;;;5053204;28;20052;-95
2022/12/23 13:17:33;;;;;;;28.02;13.38;;;;;;;;;;5058002;28;20071;-92
2022/12/23 13:20:22;;;;;;;27.50;12.88;;;;;;;;;;5037813;28;20052;-93
2022/12/23 13:22:49;;;;;;;27.08;13.43;;;;;;;;;;5011594;28;20505;-92
2022/12/23 13:25:23;;;;;;;27.30;12.68;;;;;;;;;;5037898;28;20120;-92
2022/12/23 13:28:08;;;;;;;28.88;12.35;;;;;;;;;;5037675;28;20048;-93
2022/12/23 13:30:39;;;;;;;30.33;12.80;;;;;;;;;;5038158;28;20044;-96
2022/12/23 13:33:07;;;;;;;34.40;13.40;;;;;;;;;;5037356;28;20052;-93
2022/12/23 13:35:40;;;;;;;29.00;14.32;;;;;;;;;;5037851;28;20117;-94
2022/12/23 13:38:23;;;;;;;24.70;14.18;;;;;;;;;;5054763;28;20045;-93
2022/12/23 13:40:49;;;;;;;23.27;12.70;;;;;;;;;;5037085;28;20071;-92
2022/12/23 13:43:18;;;;;;;19.60;11.90;;;;;;;;;;5037244;28;20079;-92
2022/12/23 13:45:45;;;;;;;31.80;13.23;;;;;;;;;;5037038;28;20582;-94
2022/12/23 13:48:36;;;;;;;25.58;12.60;;;;;;;;;;5037786;28;20045;-93
2022/12/23 13:51:19;;;;;;;22.38;11.65;;;;;;;;;;5039302;28;20053;-93
2022/12/23 13:53:48;;;;;;;29.05;12.07;;;;;;;;;;5052019;28;20056;-94
2022/12/23 13:56:25;;;;;;;21.45;11.75;;;;;;;;;;5050565;28;20049;-94
2022/12/23 13:58:52;;;;;;;29.63;12.57;;;;;;;;;;5036923;28;20053;-92
2022/12/23 14:01:20;;;;;;;27.92;12.65;;;;;;;;;;5037095;28;20140;-93
2022/12/23 14:03:50;;;;;;;26.88;12.30;;;;;;;;;;5036997;28;20511;-92
2022/12/23 14:06:25;;;;;;;27.10;12.63;;;;;;;;;;5054590;28;20523;-92
2022/12/23 14:08:52;;;;;;;27.17;11.75;;;;;;;;;;5035564;28;20045;-94
2022/12/23 14:11:20;;;;;;;20.73;10.10;;;;;;;;;;5037188;28;20164;-92
2022/12/23 14:13:49;;;;;;;18.70;10.85;;;;;;;;;;5037154;28;20080;-96
2022/12/23 14:16:25;;;;;;;17.27;9.32;;;;;;;;;;5038016;28;20143;-93
2022/12/23 14:18:54;;;;;;;17.95;10.68;;;;;;;;;;5039698;28;20485;-94
2022/12/23 14:21:24;;;;;;;36.63;11.63;;;;;;;;;;5039640;28;20103;-94
2022/12/23 14:23:54;;;;;;;25.77;12.48;;;;;;;;;;5038182;28;20052;-95
2022/12/23 14:26:21;;;;;;;25.27;12.15;;;;;;;;;;5037572;28;20049;-94
2022/12/23 14:29:17;;;;;;;23.40;12.32;;;;;;;;;;5039648;28;20053;-96
2022/12/23 14:31:45;;;;;;;24.17;11.98;;;;;;;;;;5026913;28;20068;-96
2022/12/23 14:34:17;;;;;;;27.67;11.73;;;;;;;;;;5036773;28;20134;-93
2022/12/23 14:37:28;;;;;;;25.08;11.52;;;;;;;;;;5079796;23;20144;-92
2022/12/23 14:39:57;;;;;;;27.50;11.95;;;;;;;;;;5029240;28;20054;-96
2022/12/23 14:42:39;;;;;;;26.50;12.57;;;;;;;;;;4986607;28;20050;-93
2022/12/23 14:45:24;;;;;;;18.35;10.50;;;;;;;;;;5043403;28;20130;-91
2022/12/23 14:47:51;;;;;;;25.63;12.20;;;;;;;;;;5105168;28;20051;-90
2022/12/23 14:50:36;;;;;;;28.48;13.90;;;;;;;;;;5152917;22;20071;-93
2022/12/23 14:53:04;;;;;;;26.25;11.00;;;;;;;;;;5081694;28;20134;-96
2022/12/23 14:55:38;;;;;;;20.90;10.30;;;;;;;;;;5086020;28;20052;-90
2022/12/23 14:58:18;;;;;;;26.23;10.15;;;;;;;;;;5109374;22;20504;-92
2022/12/23 15:01:22;;;;;;;28.08;11.45;;;;;;;;;;5087423;28;20055;-90